Time;durP1;ratioP1;P1;durP2;ratioP2;P2;SDS_P1;SDS_P2;PMS_P1;PMS_P2;Temp;Humidity;BMP_temperature;BMP_pressure;BME280_temperature;BME280_humidity;BME280_pressure;Samples;Min_cycle;Max_cycle;Signal;HPM_P1;HPM_P2
2021/04/10 00:02:08;;;;;;;9.05;7.75;;;;;;;3.52;56.58;99656.61;1675956;83;21191;-58
2021/04/10 00:04:36;;;;;;;10.98;7.87;;;;;;;3.53;56.58;99654.34;1690908;83;21007;-59
2021/04/10 00:07:05;;;;;;;13.80;8.15;;;;;;;3.54;56.59;99653.41;1706982;83;21154;-61
2021/04/10 00:09:32;;;;;;;10.70;7.90;;;;;;;3.52;56.65;99648.72;1696252;83;21010;-59
2021/04/10 00:12:01;;;;;;;14.45;8.33;;;;;;;3.53;56.74;99655.66;1670018;83;21421;-58
2021/04/10 00:14:28;;;;;;;11.75;8.45;;;;;;;3.51;56.80;99644.44;1676976;83;21212;-60
2021/04/10 00:16:57;;;;;;;10.82;7.80;;;;;;;3.51;56.82;99644.91;1707602;83;20960;-59
2021/04/10 00:19:25;;;;;;;11.48;7.45;;;;;;;3.49;56.91;99638.94;1678645;83;21033;-58
2021/04/10 00:21:53;;;;;;;14.98;9.13;;;;;;;3.48;57.03;99640.73;1649748;83;21160;-58
2021/04/10 00:24:20;;;;;;;12.93;8.55;;;;;;;3.46;57.09;99640.49;1669204;83;21386;-58
2021/04/10 00:26:47;;;;;;;9.55;8.08;;;;;;;3.44;57.18;99640.59;1706969;83;21121;-58
2021/04/10 00:29:15;;;;;;;10.80;7.85;;;;;;;3.43;57.28;99638.94;1708313;83;21691;-58
2021/04/10 00:31:44;;;;;;;10.55;7.62;;;;;;;3.37;57.44;99635.47;1702808;83;21069;-59
2021/04/10 00:34:12;;;;;;;10.08;8.45;;;;;;;3.34;57.59;99639.66;1694151;83;21212;-58
2021/04/10 00:36:41;;;;;;;14.83;8.65;;;;;;;3.30;57.72;99637.39;1685813;83;21129;-61
2021/04/10 00:39:08;;;;;;;13.53;9.13;;;;;;;3.28;57.85;99639.31;1699916;83;20949;-58
2021/04/10 00:41:36;;;;;;;14.87;8.85;;;;;;;3.25;57.96;99633.81;1680748;83;21152;-58
2021/04/10 00:44:06;;;;;;;9.85;7.67;;;;;;;3.21;58.10;99631.56;1667288;83;21188;-57
2021/04/10 00:46:33;;;;;;;11.53;8.73;;;;;;;3.16;58.24;99630.58;1685253;83;21177;-57
2021/04/10 00:49:01;;;;;;;13.75;8.73;;;;;;;3.12;58.32;99626.53;1706676;84;21224;-59
2021/04/10 00:51:29;;;;;;;17.30;9.30;;;;;;;3.09;58.39;99617.09;1692743;83;21098;-57
2021/04/10 00:53:57;;;;;;;21.12;10.00;;;;;;;3.08;58.51;99617.20;1691066;82;21011;-57
2021/04/10 00:56:25;;;;;;;12.43;8.08;;;;;;;3.08;58.49;99622.45;1700429;82;21184;-61
2021/04/10 00:58:53;;;;;;;14.78;8.38;;;;;;;3.07;58.59;99615.07;1718378;82;21074;-57
2021/04/10 01:01:20;;;;;;;13.93;8.35;;;;;;;3.06;58.63;99620.43;1725486;82;21364;-58
2021/04/10 01:03:48;;;;;;;9.93;8.58;;;;;;;3.04;58.74;99616.62;1724497;81;21164;-58
2021/04/10 01:06:15;;;;;;;12.93;8.00;;;;;;;3.02;58.78;99613.75;1702583;82;21160;-59
2021/04/10 01:08:43;;;;;;;12.85;8.00;;;;;;;3.00;58.86;99615.64;1716568;81;20922;-58
2021/04/10 01:11:34;;;;;;;9.88;7.45;;;;;;;2.97;58.90;99611.96;1721329;82;21120;-58
2021/04/10 01:14:49;;;;;;;12.37;8.33;;;;;;;2.92;59.01;99617.55;1693221;82;21256;-57
2021/04/10 01:17:19;;;;;;;11.57;7.62;;;;;;;2.90;59.04;99614.69;1690846;82;21162;-58
2021/04/10 01:20:26;;;;;;;10.90;7.45;;;;;;;2.85;59.08;99612.42;1701898;83;21132;-58
2021/04/10 01:23:37;;;;;;;8.60;7.15;;;;;;;2.83;59.16;99612.18;1694959;82;21023;-59
2021/04/10 01:26:22;;;;;;;11.15;7.28;;;;;;;2.79;59.14;99607.63;1733575;82;21152;-60
2021/04/10 01:29:00;;;;;;;11.00;7.10;;;;;;;2.79;59.11;99610.76;1736345;82;21400;-58
2021/04/10 01:31:33;;;;;;;9.83;7.42;;;;;;;2.78;59.03;99609.92;1715397;82;21164;-58
2021/04/10 01:34:04;;;;;;;9.05;7.55;;;;;;;2.77;58.99;99604.29;1725239;81;21088;-58
2021/04/10 01:36:36;;;;;;;16.00;7.58;;;;;;;2.77;58.94;99605.61;1729932;81;21602;-57
2021/04/10 01:39:07;;;;;;;11.75;7.97;;;;;;;2.76;58.89;99608.36;1710599;82;21156;-57
2021/04/10 01:41:36;;;;;;;10.50;7.95;;;;;;;2.78;58.75;99608.60;1679177;84;21367;-58
2021/04/10 01:44:04;;;;;;;15.25;8.75;;;;;;;2.79;58.66;99608.94;1705145;83;21041;-57
2021/04/10 01:46:33;;;;;;;9.75;6.90;;;;;;;2.81;58.57;99604.91;1709049;82;20994;-58
2021/04/10 01:49:01;;;;;;;10.78;7.40;;;;;;;2.80;58.54;99611.09;1667227;85;21081;-59
2021/04/10 01:51:28;;;;;;;7.62;6.60;;;;;;;2.79;58.51;99614.70;1630785;85;21133;-57
2021/04/10 01:53:56;;;;;;;10.35;7.70;;;;;;;2.78;58.55;99609.08;1672286;85;21391;-57
2021/04/10 01:56:24;;;;;;;9.35;7.03;;;;;;;2.75;58.56;99611.93;1657747;85;21249;-58
2021/04/10 01:58:55;;;;;;;10.48;7.78;;;;;;;2.73;58.59;99609.44;1660616;84;21140;-57
2021/04/10 02:01:24;;;;;;;10.45;7.75;;;;;;;2.71;58.65;99610.51;1695518;81;21211;-58
2021/04/10 02:03:53;;;;;;;9.50;7.25;;;;;;;2.68;58.72;99608.11;1709437;82;21113;-57
2021/04/10 02:06:21;;;;;;;13.75;7.40;;;;;;;2.66;58.73;99608.71;1715259;82;21223;-60
2021/04/10 02:08:51;;;;;;;10.28;7.53;;;;;;;2.63;58.78;99605.84;1710633;82;21092;-58
2021/04/10 02:11:21;;;;;;;11.00;8.28;;;;;;;2.63;58.73;99605.00;1672509;84;21094;-61
2021/04/10 02:13:51;;;;;;;10.45;7.70;;;;;;;2.61;58.76;99617.42;1646044;86;21000;-62
2021/04/10 02:16:21;;;;;;;12.70;8.43;;;;;;;2.59;58.72;99604.39;1680212;83;21149;-58
2021/04/10 02:18:52;;;;;;;10.00;7.83;;;;;;;2.59;58.72;99610.95;1708481;82;20924;-59
2021/04/10 02:21:26;;;;;;;13.75;8.08;;;;;;;2.60;58.70;99596.87;1683573;83;21070;-59
2021/04/10 02:23:54;;;;;;;11.68;7.75;;;;;;;2.59;58.67;99607.02;1683635;83;21189;-59
2021/04/10 02:26:37;;;;;;;11.15;8.33;;;;;;;2.64;58.66;99602.72;1810521;78;28104;-58
2021/04/10 02:29:06;;;;;;;12.28;8.13;;;;;;;2.59;58.65;99602.23;1771900;79;21597;-58
2021/04/10 02:31:54;;;;;;;9.78;7.87;;;;;;;2.56;58.70;99601.98;1771447;79;21196;-59
2021/04/10 02:34:25;;;;;;;12.58;7.95;;;;;;;2.56;58.72;99603.77;1784372;79;21007;-59
2021/04/10 02:36:55;;;;;;;10.32;8.45;;;;;;;2.54;58.78;99602.59;1760629;79;20985;-58
2021/04/10 02:39:23;;;;;;;9.48;8.05;;;;;;;2.55;58.83;99607.38;1767753;79;21554;-59
2021/04/10 02:41:52;;;;;;;8.28;6.85;;;;;;;2.53;58.85;99601.41;1758185;79;21044;-58
2021/04/10 02:44:30;;;;;;;11.10;8.25;;;;;;;2.51;58.86;99602.81;1726678;81;21472;-58
2021/04/10 02:46:59;;;;;;;11.30;8.38;;;;;;;2.50;58.89;99601.98;1784711;79;21617;-59
2021/04/10 02:49:29;;;;;;;9.58;8.30;;;;;;;2.47;58.91;99597.45;1769481;79;21560;-60
2021/04/10 02:52:00;;;;;;;12.33;10.30;;;;;;;2.47;58.89;99598.30;1763952;79;21154;-61
2021/04/10 02:54:30;;;;;;;10.28;7.87;;;;;;;2.48;58.86;99603.89;1781572;79;21106;-59
2021/04/10 02:57:08;;;;;;;11.93;9.20;;;;;;;2.49;58.85;99595.07;1776088;78;22249;-57
2021/04/10 02:59:43;;;;;;;11.33;8.73;;;;;;;2.50;58.83;99597.23;1781437;79;21120;-58
2021/04/10 03:02:12;;;;;;;9.98;8.48;;;;;;;2.48;58.86;99594.70;1779557;79;20969;-60
2021/04/10 03:04:41;;;;;;;11.48;8.15;;;;;;;2.48;58.92;99596.48;1789490;79;20994;-59
2021/04/10 03:07:10;;;;;;;11.40;8.55;;;;;;;2.46;58.91;99597.92;1783817;79;21139;-58
2021/04/10 03:09:42;;;;;;;11.60;7.92;;;;;;;2.45;58.94;99596.23;1785288;79;21201;-62
2021/04/10 03:12:18;;;;;;;8.23;7.35;;;;;;;2.46;58.92;99602.34;1779485;79;21135;-60
2021/04/10 03:14:47;;;;;;;11.45;8.68;;;;;;;2.44;58.98;99588.48;1791368;78;20985;-57
2021/04/10 03:17:18;;;;;;;11.73;8.78;;;;;;;2.43;58.96;99592.90;1776964;77;21264;-58
2021/04/10 03:19:47;;;;;;;11.70;9.23;;;;;;;2.42;59.01;99591.22;1779101;79;21163;-58
2021/04/10 03:22:15;;;;;;;14.68;9.60;;;;;;;2.41;58.96;99585.62;1786932;79;21364;-57
2021/04/10 03:24:43;;;;;;;9.70;7.97;;;;;;;2.41;58.94;99586.94;1790772;79;21487;-58
2021/04/10 03:27:12;;;;;;;11.85;9.50;;;;;;;2.41;58.89;99583.47;1783420;79;21062;-59
2021/04/10 03:29:40;;;;;;;11.18;9.00;;;;;;;2.42;58.91;99585.96;1783821;79;20998;-59
2021/04/10 03:32:09;;;;;;;14.07;9.18;;;;;;;2.44;58.85;99588.48;1780105;79;20993;-62
2021/04/10 03:34:40;;;;;;;12.30;9.43;;;;;;;2.45;58.83;99586.23;1791873;79;20988;-59
2021/04/10 03:37:08;;;;;;;11.33;8.63;;;;;;;2.46;58.77;99586.11;1790935;79;21148;-59
2021/04/10 03:39:37;;;;;;;14.93;9.70;;;;;;;2.47;58.74;99591.73;1788812;77;21534;-58
2021/04/10 03:42:10;;;;;;;11.43;9.35;;;;;;;2.50;58.68;99595.41;1784762;79;20997;-58
2021/04/10 03:44:37;;;;;;;11.75;8.50;;;;;;;2.55;58.59;99591.61;1801081;77;21147;-59
2021/04/10 03:47:07;;;;;;;13.80;10.30;;;;;;;2.60;58.50;99593.41;1801174;79;21350;-58
2021/04/10 03:49:36;;;;;;;11.53;9.10;;;;;;;2.67;58.31;99591.50;1804972;78;21001;-58
2021/04/10 03:52:05;;;;;;;13.32;8.88;;;;;;;2.78;58.15;99605.13;1797228;79;21147;-59
2021/04/10 03:54:33;;;;;;;15.28;9.95;;;;;;;2.92;57.80;99590.46;1797081;79;21179;-62
2021/04/10 03:57:01;;;;;;;12.80;9.63;;;;;;;3.07;57.45;99594.05;1786775;79;21771;-60
2021/04/10 03:59:29;;;;;;;12.00;9.40;;;;;;;3.20;57.00;99597.85;1794662;79;21343;-57
2021/04/10 04:01:59;;;;;;;11.10;8.08;;;;;;;3.31;56.52;99596.50;1773705;79;20978;-60
2021/04/10 04:04:28;;;;;;;13.20;9.20;;;;;;;3.33;56.32;99591.98;1790700;79;21118;-60
2021/04/10 04:06:56;;;;;;;10.35;9.25;;;;;;;3.30;56.21;99594.84;1797146;79;20981;-57
2021/04/10 04:09:24;;;;;;;13.48;8.60;;;;;;;3.27;56.18;99588.98;1808398;79;21132;-60
2021/04/10 04:11:53;;;;;;;10.25;8.58;;;;;;;3.22;56.37;99590.67;1792434;79;21446;-57
2021/04/10 04:14:21;;;;;;;12.63;9.38;;;;;;;3.20;56.46;99592.59;1797937;79;20932;-61
2021/04/10 04:16:49;;;;;;;12.23;9.68;;;;;;;3.18;56.42;99602.88;1782667;79;21010;-60
2021/04/10 04:19:16;;;;;;;12.68;9.80;;;;;;;3.25;56.50;99597.48;1771777;80;21131;-58
2021/04/10 04:21:44;;;;;;;23.02;9.65;;;;;;;3.37;56.41;99607.02;1742963;81;21485;-62
2021/04/10 04:24:11;;;;;;;16.75;9.73;;;;;;;3.55;55.92;99588.45;1729494;82;21164;-56
2021/04/10 04:26:39;;;;;;;13.40;9.50;;;;;;;3.78;55.35;99594.00;1721743;82;21145;-58
2021/04/10 04:29:07;;;;;;;10.88;8.68;;;;;;;4.04;54.74;99592.70;1777702;79;21072;-61
2021/04/10 04:31:34;;;;;;;9.95;8.58;;;;;;;4.32;53.65;99597.37;1756809;79;20985;-61
2021/04/10 04:34:02;;;;;;;13.53;9.48;;;;;;;4.57;53.22;99601.89;1769467;80;21050;-58
2021/04/10 04:36:31;;;;;;;11.00;8.68;;;;;;;4.72;52.67;99601.93;1792244;79;21428;-57
2021/04/10 04:39:04;;;;;;;11.35;9.15;;;;;;;4.83;52.30;99612.37;1765936;79;21053;-58
2021/04/10 04:41:32;;;;;;;14.30;9.55;;;;;;;4.91;51.89;99604.17;1797108;79;21116;-58
2021/04/10 04:43:59;;;;;;;13.83;9.18;;;;;;;4.99;51.53;99603.03;1777757;79;21017;-58
2021/04/10 04:46:27;;;;;;;11.20;7.97;;;;;;;5.05;51.42;99604.31;1759711;79;21171;-59
2021/04/10 04:48:56;;;;;;;11.15;9.75;;;;;;;5.16;51.23;99610.81;1772338;79;21370;-58
2021/04/10 04:51:23;;;;;;;9.88;8.88;;;;;;;5.34;51.12;99608.38;1766646;79;21147;-58
2021/04/10 04:53:51;;;;;;;10.88;9.20;;;;;;;5.58;50.61;99602.23;1782329;79;20965;-58
2021/04/10 04:56:19;;;;;;;14.45;9.18;;;;;;;5.81;50.29;99602.38;1747158;79;21017;-58
2021/04/10 04:58:46;;;;;;;13.15;10.18;;;;;;;6.04;49.58;99591.93;1751617;78;21125;-58
2021/04/10 05:01:14;;;;;;;11.90;8.73;;;;;;;6.24;49.10;99595.38;1793103;79;21348;-59
2021/04/10 05:03:44;;;;;;;11.78;9.28;;;;;;;6.38;48.82;99596.29;1790835;79;21134;-61
2021/04/10 05:06:11;;;;;;;13.53;10.32;;;;;;;6.50;48.14;99615.45;1747113;79;20925;-61
2021/04/10 05:08:39;;;;;;;12.82;9.40;;;;;;;6.56;48.05;99599.88;1760542;78;21002;-59
2021/04/10 05:11:08;;;;;;;11.35;8.38;;;;;;;6.68;47.83;99590.80;1784983;79;21144;-57
2021/04/10 05:13:35;;;;;;;10.30;8.83;;;;;;;6.79;47.32;99608.30;1778951;79;21198;-62
2021/04/10 05:16:04;;;;;;;13.35;8.90;;;;;;;6.86;47.29;99603.30;1758337;79;21253;-58
2021/04/10 05:18:31;;;;;;;10.60;9.18;;;;;;;6.94;46.92;99601.58;1761719;79;21108;-60
2021/04/10 05:20:59;;;;;;;10.45;7.97;;;;;;;7.03;46.74;99607.34;1767680;79;20989;-59
2021/04/10 05:23:26;;;;;;;11.43;8.50;;;;;;;7.18;46.33;99592.65;1760079;79;21136;-59
2021/04/10 05:25:54;;;;;;;9.35;8.18;;;;;;;7.40;45.93;99592.25;1791492;79;21366;-60
2021/04/10 05:28:22;;;;;;;10.00;8.95;;;;;;;7.67;45.33;99593.21;1792587;79;20949;-59
2021/04/10 05:30:50;;;;;;;10.63;8.80;;;;;;;7.94;44.79;99600.64;1791384;77;21028;-59
2021/04/10 05:33:18;;;;;;;10.85;8.48;;;;;;;8.20;43.96;99590.11;1782759;79;21073;-59
2021/04/10 05:35:46;;;;;;;39.33;10.55;;;;;;;8.44;43.61;99604.09;1799162;79;21101;-58
2021/04/10 05:38:13;;;;;;;11.50;9.05;;;;;;;8.76;42.87;99605.64;1792038;77;21369;-62
2021/04/10 05:40:41;;;;;;;12.95;8.03;;;;;;;9.00;42.58;99594.35;1801887;79;22003;-59
2021/04/10 05:43:08;;;;;;;9.95;8.90;;;;;;;9.22;41.84;99592.00;1793743;79;20958;-58
2021/04/10 05:45:36;;;;;;;9.25;7.83;;;;;;;9.37;41.70;99582.92;1793000;77;21064;-58
2021/04/10 05:48:07;;;;;;;9.85;8.15;;;;;;;9.59;41.11;99591.66;1792584;79;21116;-59
2021/04/10 05:50:34;;;;;;;12.20;8.70;;;;;;;9.82;40.39;99599.36;1796065;79;21338;-59
2021/04/10 05:53:02;;;;;;;10.28;8.68;;;;;;;10.01;40.19;99593.41;1790850;77;20989;-59
2021/04/10 05:55:30;;;;;;;11.95;9.15;;;;;;;10.09;39.48;99588.11;1797684;79;21037;-58
2021/04/10 05:57:58;;;;;;;11.50;8.80;;;;;;;10.11;39.30;99594.92;1801207;79;21633;-58
2021/04/10 06:00:25;;;;;;;10.25;8.20;;;;;;;10.15;39.07;99603.41;1799687;79;21140;-58
2021/04/10 06:02:54;;;;;;;9.55;8.55;;;;;;;10.15;39.25;99598.93;1794693;79;21819;-60
2021/04/10 06:05:22;;;;;;;9.45;8.45;;;;;;;10.22;39.13;99607.91;1791074;79;21111;-58
2021/04/10 06:07:50;;;;;;;16.57;8.83;;;;;;;10.33;39.46;99606.75;1796986;79;21104;-56
2021/04/10 06:10:18;;;;;;;12.10;8.40;;;;;;;10.48;38.71;99609.91;1791563;79;21586;-59
2021/04/10 06:12:47;;;;;;;11.33;8.13;;;;;;;10.59;38.42;99607.91;1787006;79;21103;-58
2021/04/10 06:15:19;;;;;;;13.10;9.03;;;;;;;10.71;38.55;99606.09;1795036;79;21357;-58
2021/04/10 06:17:46;;;;;;;10.15;7.87;;;;;;;10.86;38.35;99592.43;1785943;79;21559;-57
2021/04/10 06:20:16;;;;;;;9.45;8.23;;;;;;;11.07;37.34;99595.88;1806913;79;20991;-58
2021/04/10 06:22:44;;;;;;;13.40;8.90;;;;;;;11.23;37.50;99602.48;1799115;79;21128;-61
2021/04/10 06:25:12;;;;;;;15.08;8.73;;;;;;;11.42;37.09;99589.27;1784581;79;21159;-58
2021/04/10 06:27:39;;;;;;;9.38;7.80;;;;;;;11.60;36.81;99587.99;1782441;79;21363;-57
2021/04/10 06:30:09;;;;;;;11.65;7.72;;;;;;;11.76;36.16;99589.78;1804995;79;21017;-58
2021/04/10 06:32:37;;;;;;;12.37;7.83;;;;;;;11.91;35.49;99593.88;1791092;79;21127;-58
2021/04/10 06:35:08;;;;;;;7.65;6.87;;;;;;;12.10;35.47;99569.40;1806969;77;21202;-58
2021/04/10 06:37:36;;;;;;;11.10;8.08;;;;;;;12.36;34.72;99577.87;1798440;79;21610;-56
2021/04/10 06:40:06;;;;;;;17.02;6.65;;;;;;;12.47;33.46;99604.63;1798439;79;21378;-57
2021/04/10 06:42:33;;;;;;;14.68;6.97;;;;;;;12.27;33.46;99597.13;1799515;79;21048;-60
2021/04/10 06:45:04;;;;;;;8.68;6.45;;;;;;;12.14;33.65;99596.05;1788487;77;21459;-61
2021/04/10 06:47:33;;;;;;;11.93;6.12;;;;;;;12.03;33.83;99599.95;1794761;79;20989;-58
2021/04/10 06:50:02;;;;;;;8.10;5.65;;;;;;;11.79;33.72;99606.76;1787001;77;21106;-58
2021/04/10 06:52:30;;;;;;;10.08;6.30;;;;;;;11.62;33.81;99617.98;1795876;79;21334;-58
2021/04/10 06:55:12;;;;;;;9.38;6.03;;;;;;;11.44;34.17;99600.58;1790928;77;21178;-58
2021/04/10 06:58:04;;;;;;;8.50;5.87;;;;;;;11.39;34.61;99597.11;1782628;79;21155;-59
2021/04/10 07:00:32;;;;;;;6.90;5.75;;;;;;;11.53;34.98;99591.53;1791769;79;20989;-58
2021/04/10 07:03:01;;;;;;;7.58;5.58;;;;;;;11.81;34.20;99602.60;1795160;79;21179;-58
2021/04/10 07:05:29;;;;;;;7.65;5.92;;;;;;;12.02;33.73;99592.95;1788495;79;21371;-58
2021/04/10 07:07:59;;;;;;;6.20;5.22;;;;;;;12.20;33.52;99603.36;1796052;79;21362;-59
2021/04/10 07:10:26;;;;;;;7.35;5.80;;;;;;;12.35;32.30;99605.57;1790418;79;20969;-57
2021/04/10 07:12:54;;;;;;;8.15;5.40;;;;;;;12.39;32.43;99602.86;1807427;77;21154;-55
2021/04/10 07:15:23;;;;;;;13.55;5.95;;;;;;;12.60;31.87;99608.36;1804159;79;21124;-58
2021/04/10 07:17:52;;;;;;;9.38;5.90;;;;;;;12.75;31.91;99615.05;1785190;79;21238;-58
2021/04/10 07:20:29;;;;;;;9.03;6.53;;;;;;;13.06;31.37;99598.42;1783105;79;21151;-61
2021/04/10 07:23:11;;;;;;;11.78;6.12;;;;;;;13.37;31.07;99595.09;1782653;79;21120;-58
2021/04/10 07:25:42;;;;;;;6.42;5.80;;;;;;;13.78;30.47;99586.54;1796792;79;21123;-58
2021/04/10 07:28:28;;;;;;;13.40;5.80;;;;;;;14.12;29.65;99597.41;1791432;79;21059;-56
2021/04/10 07:31:05;;;;;;;6.17;5.42;;;;;;;14.33;29.39;99601.98;1791720;79;21422;-58
2021/04/10 07:33:34;;;;;;;6.62;5.08;;;;;;;14.37;29.22;99604.07;1798017;79;21457;-57
2021/04/10 07:36:05;;;;;;;7.72;6.08;;;;;;;14.24;29.27;99607.42;1802824;79;20910;-59
2021/04/10 07:38:41;;;;;;;5.47;4.67;;;;;;;14.03;29.69;99617.27;1796867;79;21068;-57
2021/04/10 07:41:18;;;;;;;;;;;;;;;13.77;30.00;99602.25;1793495;79;21541;-60
2021/04/10 07:43:46;;;;;;;5.83;5.22;;;;;;;13.46;30.04;99626.03;1797833;79;21432;-60
2021/04/10 07:46:26;;;;;;;7.35;5.67;;;;;;;13.11;30.43;99620.09;1783894;79;20925;-60
2021/04/10 07:49:13;;;;;;;11.45;5.70;;;;;;;12.87;31.08;99622.47;1792322;79;20883;-58
2021/04/10 07:51:54;;;;;;;7.03;5.75;;;;;;;12.79;31.00;99615.88;1795146;79;21127;-58
2021/04/10 07:54:33;;;;;;;13.78;5.83;;;;;;;12.74;31.17;99614.25;1794985;79;21107;-59
2021/04/10 07:57:04;;;;;;;6.17;5.42;;;;;;;12.79;31.08;99629.72;1795352;79;21393;-56
2021/04/10 07:59:53;;;;;;;10.68;5.97;;;;;;;12.68;30.92;99643.48;1800672;79;20918;-58
2021/04/10 08:02:24;;;;;;;10.93;6.70;;;;;;;12.45;31.46;99624.00;1800759;78;20962;-58
2021/04/10 08:04:56;;;;;;;10.45;5.78;;;;;;;12.37;31.86;99625.73;1801211;79;21513;-58
2021/04/10 08:07:30;;;;;;;10.68;5.72;;;;;;;12.29;31.90;99627.62;1799731;79;21053;-58
2021/04/10 08:10:05;;;;;;;8.53;6.60;;;;;;;12.18;32.49;99631.52;1800427;79;21199;-58
2021/04/10 08:12:34;;;;;;;9.98;6.00;;;;;;;12.16;32.63;99625.54;1796316;79;21124;-59
2021/04/10 08:15:04;;;;;;;9.68;6.40;;;;;;;12.30;32.62;99635.45;1794511;79;21147;-60
2021/04/10 08:17:42;;;;;;;8.85;5.33;;;;;;;12.58;31.87;99609.55;1797457;79;21561;-59
2021/04/10 08:20:27;;;;;;;9.98;5.83;;;;;;;12.94;31.58;99615.38;1798006;79;21072;-58
2021/04/10 08:23:19;;;;;;;14.15;6.37;;;;;;;13.32;30.73;99620.17;1800182;79;21334;-58
2021/04/10 08:25:47;;;;;;;9.53;5.53;;;;;;;13.61;30.65;99597.45;1797380;79;21116;-57
2021/04/10 08:28:16;;;;;;;14.55;6.15;;;;;;;14.04;30.04;99601.05;1785331;79;21128;-57
2021/04/10 08:30:45;;;;;;;5.12;4.50;;;;;;;14.21;29.65;99610.47;1779043;79;21029;-58
2021/04/10 08:33:13;;;;;;;6.42;5.50;;;;;;;14.12;29.50;99590.73;1784773;79;21203;-55
2021/04/10 08:35:41;;;;;;;7.47;4.65;;;;;;;14.02;29.87;99610.28;1783076;79;21383;-55
2021/04/10 08:38:08;;;;;;;7.05;4.35;;;;;;;14.03;30.01;99591.85;1780581;78;21004;-59
2021/04/10 08:40:36;;;;;;;6.03;5.10;;;;;;;14.08;29.94;99582.75;1775680;78;21609;-60
2021/04/10 08:43:04;;;;;;;5.10;4.55;;;;;;;14.13;29.76;99598.55;1783191;78;21351;-57
2021/04/10 08:48:14;;;;;;;5.35;4.55;;;;;;;14.21;29.12;99589.06;1812280;77;22729;-58
2021/04/10 08:50:41;;;;;;;7.35;5.25;;;;;;;14.17;29.37;99581.63;1782220;79;20977;-55
2021/04/10 08:53:11;;;;;;;8.33;5.25;;;;;;;14.24;29.33;99579.83;1777906;79;21336;-57
2021/04/10 08:55:41;;;;;;;7.55;4.87;;;;;;;14.34;29.20;99583.05;1792006;79;21064;-58
2021/04/10 08:58:30;;;;;;;6.95;4.97;;;;;;;14.37;29.21;99574.63;1795827;79;21571;-56
2021/04/10 09:01:06;;;;;;;6.55;5.08;;;;;;;14.33;28.71;99592.11;1791964;79;21044;-58
2021/04/10 09:03:49;;;;;;;8.03;5.23;;;;;;;14.22;28.83;99571.17;1786951;78;21672;-57
2021/04/10 09:06:33;;;;;;;8.18;5.72;;;;;;;14.27;29.26;99569.25;1773170;78;21323;-57
2021/04/10 09:09:16;;;;;;;11.00;9.33;;;;;;;14.48;29.43;99571.45;1785128;79;21080;-57
2021/04/10 09:11:45;;;;;;;10.10;6.45;;;;;;;14.77;29.31;99565.09;1779411;79;21048;-59
2021/04/10 09:14:43;;;;;;;8.13;5.83;;;;;;;15.16;28.98;99570.70;1777214;79;21580;-56
2021/04/10 09:17:12;;;;;;;8.88;5.60;;;;;;;15.53;28.38;99573.52;1799833;78;21096;-56
2021/04/10 09:19:39;;;;;;;8.65;5.15;;;;;;;15.91;28.39;99581.37;1776395;78;21235;-57
2021/04/10 09:22:16;;;;;;;9.00;5.40;;;;;;;16.17;27.78;99567.20;1791700;78;21008;-59
2021/04/10 09:24:47;;;;;;;7.08;5.50;;;;;;;16.26;27.31;99570.52;1789181;79;21040;-56
2021/04/10 09:27:22;;;;;;;5.83;5.30;;;;;;;16.22;27.32;99582.68;1785210;79;21159;-57
2021/04/10 09:30:01;;;;;;;7.08;4.92;;;;;;;16.19;27.47;99573.18;1777546;78;21207;-57
2021/04/10 09:32:44;;;;;;;9.60;5.62;;;;;;;16.33;27.67;99570.00;1805416;79;21429;-56
2021/04/10 09:35:19;;;;;;;6.17;5.25;;;;;;;16.64;27.50;99558.17;1782894;78;21069;-57
2021/04/10 09:37:49;;;;;;;6.42;5.30;;;;;;;16.98;27.13;99567.34;1794803;77;21065;-57
2021/04/10 09:40:38;;;;;;;8.08;5.28;;;;;;;17.29;26.84;99570.68;1781919;78;21640;-56
2021/04/10 09:43:06;;;;;;;6.50;5.33;;;;;;;17.42;26.54;99558.54;1762756;79;21171;-58
2021/04/10 09:45:34;;;;;;;9.18;5.45;;;;;;;17.40;25.81;99550.38;1779792;79;23533;-56
2021/04/10 09:48:11;;;;;;;10.40;5.58;;;;;;;17.12;26.13;99546.13;1798538;79;21095;-56
2021/04/10 09:50:57;;;;;;;8.53;5.10;;;;;;;16.83;26.53;99549.28;1786086;77;21585;-57
2021/04/10 09:53:26;;;;;;;7.60;4.53;;;;;;;16.70;27.00;99544.44;1802368;79;21121;-57
2021/04/10 09:56:01;;;;;;;8.80;5.65;;;;;;;16.88;26.16;99538.73;1791294;77;21203;-59
2021/04/10 09:58:36;;;;;;;9.28;6.47;;;;;;;17.05;25.85;99548.53;1791354;79;21474;-56
2021/04/10 10:01:09;;;;;;;10.05;5.08;;;;;;;17.10;26.24;99539.32;1801885;79;21256;-57
2021/04/10 10:03:37;;;;;;;7.75;4.58;;;;;;;17.26;25.55;99528.91;1785623;79;21112;-58
2021/04/10 10:06:20;;;;;;;5.85;4.53;;;;;;;17.37;25.72;99539.53;1785635;77;21000;-57
2021/04/10 10:08:48;;;;;;;7.47;6.03;;;;;;;17.47;25.84;99538.56;1782605;79;21571;-57
2021/04/10 10:11:16;;;;;;;8.38;5.75;;;;;;;17.49;25.47;99543.23;1787102;79;21171;-56
2021/04/10 10:13:45;;;;;;;6.65;4.65;;;;;;;17.43;25.57;99549.96;1782280;79;21071;-56
2021/04/10 10:16:14;;;;;;;5.83;5.12;;;;;;;17.27;25.86;99548.05;1782419;79;20986;-56
2021/04/10 10:18:43;;;;;;;7.47;4.85;;;;;;;17.17;26.23;99533.40;1784538;79;20945;-56
2021/04/10 10:21:16;;;;;;;12.10;5.15;;;;;;;17.07;26.16;99549.98;1784576;77;21574;-57
2021/04/10 10:23:54;;;;;;;5.53;4.92;;;;;;;17.00;26.68;99537.56;1796152;79;21554;-57
2021/04/10 10:26:28;;;;;;;7.97;4.83;;;;;;;17.06;26.42;99535.39;1788557;77;21614;-57
2021/04/10 10:29:10;;;;;;;7.20;4.87;;;;;;;17.32;25.90;99538.52;1789194;79;21080;-56
2021/04/10 10:31:49;;;;;;;6.95;5.10;;;;;;;17.47;25.54;99535.87;1781898;77;21131;-57
2021/04/10 10:34:23;;;;;;;5.58;4.67;;;;;;;17.42;25.17;99536.20;1798265;77;21076;-57
2021/04/10 10:36:53;;;;;;;6.45;5.25;;;;;;;17.40;25.36;99532.91;1805070;79;25021;-57
2021/04/10 10:39:29;;;;;;;5.10;4.50;;;;;;;17.47;25.51;99527.80;1790004;77;21084;-58
2021/04/10 10:42:00;;;;;;;6.20;4.95;;;;;;;17.60;25.21;99525.09;1805351;79;21621;-58
2021/04/10 10:44:28;;;;;;;13.55;4.85;;;;;;;17.69;25.14;99536.44;1805680;79;21099;-58
2021/04/10 10:47:02;;;;;;;7.67;4.87;;;;;;;17.68;25.35;99536.12;1796308;79;21171;-57
2021/04/10 10:49:30;;;;;;;6.80;4.47;;;;;;;17.52;25.25;99528.53;1776875;79;21225;-56
2021/04/10 10:51:58;;;;;;;5.50;4.22;;;;;;;17.25;25.56;99541.23;1787183;79;21187;-56
2021/04/10 10:54:32;;;;;;;5.42;4.75;;;;;;;17.00;25.77;99522.78;1782237;79;20993;-58
2021/04/10 10:57:17;;;;;;;9.50;4.67;;;;;;;16.71;26.26;99533.50;1782312;79;21104;-56
2021/04/10 10:59:46;;;;;;;8.05;4.53;;;;;;;16.48;26.49;99531.70;1778422;79;21311;-57
2021/04/10 11:02:19;;;;;;;9.10;4.65;;;;;;;16.21;27.00;99527.36;1783816;79;21005;-59
2021/04/10 11:04:47;;;;;;;5.83;5.22;;;;;;;15.99;27.08;99529.39;1774269;79;21084;-58
2021/04/10 11:07:15;;;;;;;4.53;4.12;;;;;;;15.78;27.26;99545.63;1791800;79;20993;-61
2021/04/10 11:09:43;;;;;;;11.85;4.17;;;;;;;15.62;27.71;99529.90;1747697;81;21022;-59
2021/04/10 11:12:15;;;;;;;5.65;4.42;;;;;;;15.66;27.93;99559.33;1781146;79;21093;-59
2021/04/10 11:14:46;;;;;;;4.80;4.25;;;;;;;15.77;27.77;99522.00;1773925;79;21116;-59
2021/04/10 11:17:30;;;;;;;8.30;4.30;;;;;;;15.95;27.57;99534.36;1777738;79;21132;-62
2021/04/10 11:19:59;;;;;;;8.05;5.20;;;;;;;16.05;27.55;99509.29;1788434;79;21120;-60
2021/04/10 11:22:27;;;;;;;7.22;4.45;;;;;;;16.28;27.61;99510.23;1791287;79;21013;-58
2021/04/10 11:25:00;;;;;;;4.67;4.28;;;;;;;16.49;27.11;99523.96;1791160;79;21654;-59
2021/04/10 11:27:34;;;;;;;5.60;4.17;;;;;;;16.58;26.79;99514.70;1783497;79;22338;-59
2021/04/10 11:30:09;;;;;;;8.03;4.78;;;;;;;16.53;26.83;99505.08;1779546;79;20914;-59
2021/04/10 11:32:43;;;;;;;6.25;5.22;;;;;;;16.41;26.99;99504.86;1780697;79;21025;-59
2021/04/10 11:35:20;;;;;;;6.12;4.62;;;;;;;16.34;27.27;99492.48;1794038;79;20938;-61
2021/04/10 11:38:05;;;;;;;8.45;4.50;;;;;;;16.44;27.25;99496.91;1797565;79;21001;-61
2021/04/10 11:40:34;;;;;;;5.83;5.28;;;;;;;16.57;27.32;99490.22;1781097;79;21420;-60
2021/04/10 11:43:07;;;;;;;5.97;4.78;;;;;;;16.59;27.22;99494.86;1776939;78;20977;-64
2021/04/10 11:45:40;;;;;;;7.97;4.87;;;;;;;16.57;27.25;99487.53;1757146;79;21018;-60
2021/04/10 11:48:20;;;;;;;6.58;4.90;;;;;;;16.57;27.51;99487.02;1769640;79;20985;-60
2021/04/10 11:50:57;;;;;;;8.08;4.25;;;;;;;16.70;28.97;99483.48;1774181;79;21155;-59
2021/04/10 11:53:30;;;;;;;4.15;3.72;;;;;;;16.86;28.27;99475.50;1766040;79;21216;-59
2021/04/10 11:55:58;;;;;;;8.03;4.75;;;;;;;16.84;26.79;99485.09;1768806;79;21219;-59
2021/04/10 11:58:37;;;;;;;8.60;4.60;;;;;;;16.75;26.69;99471.59;1764897;79;21155;-58